Carmel, Colorado
Current Conditions -  °F | °C
As of 8:52 PM on Thursday 18 Dec 2014 (Local Time) from KALS Reporting Station
Clear Clear  
Wind Chill:   Ceiling: Unl
Heat Index: 15°   Visibility: 8mi
Dew Point: 13°   Wind: 7mph
Humidity: 91%   Direction: 80°E
Pressure: 30.12"   Gusts: NA
Location:  37.469°N, 105.836°W
Report Text: KALS 190352Z AUTO 08006KT 8SM CLR M09/M11 A3012 RMK AO2 SLP238 T10941106
Loading
Personal Weather Stations






























Interactive Weather Map New forecast layout! Learn more

10-Day Weather Forecast

Advertisements
Track Severe Weather on mobile